»·PEaware :: N1947L KSAC-KCCR

N1947L :: KSAC-KCCR

FLIGHT INFORMATION

Flight Status: Arrived
Operator: Privately registered:
United States
More flights under this callsign
Pilot: Mark S. (16827)
Aircraft: CESSNA 172 SKYHAWK
(C172)
More flights by this aircraft type
Origin: KSAC Sacramento Executive
United States
Destination: KCCR Buchanan
United States
More flights between these airports :: More routes between these airports
Route: +
File this flight plan on PilotEdge
Remarks:
Altitude:
(Current/Filed)
0ft
Speed:
(Current/Filed)
0kts
Departed: 25-Aug-18 01:50 PM
Arrived: 25-Aug-18 02:17 PM
Distance/Time
Traveled:
41nm/0:27
Distance/Time
To Go:
Arrived

Flight Plot

Page will automatically refresh every two minutes.

Flight plan parsing failed; only flown route is shown


Map Options




Map Legend


Flown Route
Filed Route
Departure Airport
Arrival Airport
Navaid (VOR, NDB)
Fix

Horizontal Profiles

Position Reports

Time Latitude Longitude Heading Altitude Ground
Speed
25-Aug-18 13:37 38.517005 -121.497685 225 24ft 0kts
25-Aug-18 13:38 38.517005 -121.497685 225 24ft 0kts
25-Aug-18 13:39 38.516624 -121.497453 131 24ft 9kts
25-Aug-18 13:40 38.513377 -121.495959 94 24ft 10kts
25-Aug-18 13:41 38.517160 -121.492471 34 24ft 20kts
25-Aug-18 13:42 38.519406 -121.490254 175 24ft 0kts
25-Aug-18 13:43 38.519406 -121.490254 175 24ft 0kts
25-Aug-18 13:44 38.519406 -121.490254 175 24ft 0kts
25-Aug-18 13:45 38.519406 -121.490254 175 24ft 0kts
25-Aug-18 13:46 38.519406 -121.490254 175 24ft 0kts
25-Aug-18 13:47 38.519406 -121.490254 175 24ft 0kts
25-Aug-18 13:48 38.519406 -121.490254 175 24ft 0kts
25-Aug-18 13:49 38.519406 -121.490254 175 24ft 0kts
25-Aug-18 13:50 38.519028 -121.489633 121 24ft 12kts
25-Aug-18 13:51 38.505429 -121.500868 215 493ft 78kts
25-Aug-18 13:52 38.487126 -121.515924 210 1342ft 80kts
25-Aug-18 13:53 38.468625 -121.530766 213 2160ft 78kts
25-Aug-18 13:54 38.450196 -121.545977 213 2894ft 79kts
25-Aug-18 13:55 38.432947 -121.563741 223 3586ft 80kts
25-Aug-18 13:56 38.416203 -121.582605 223 4243ft 81kts
25-Aug-18 13:57 38.396592 -121.604418 222 4505ft 114kts
25-Aug-18 13:58 38.371514 -121.632549 222 4501ft 121kts
25-Aug-18 13:59 38.346783 -121.660232 222 4501ft 120kts
25-Aug-18 14:00 38.321754 -121.688204 222 4500ft 119kts
25-Aug-18 14:01 38.296718 -121.716157 222 4501ft 119kts
25-Aug-18 14:02 38.271694 -121.744070 222 4501ft 119kts
25-Aug-18 14:03 38.246626 -121.772008 222 4500ft 120kts
25-Aug-18 14:04 38.221566 -121.799908 222 4493ft 121kts
25-Aug-18 14:05 38.196125 -121.828206 222 4484ft 121kts
25-Aug-18 14:06 38.170835 -121.856308 223 4487ft 120kts
25-Aug-18 14:07 38.145485 -121.884450 223 4490ft 120kts
25-Aug-18 14:08 38.120515 -121.912146 224 4494ft 119kts
25-Aug-18 14:09 38.095295 -121.940132 225 4261ft 127kts
25-Aug-18 14:10 38.069452 -121.968760 225 3763ft 119kts
25-Aug-18 14:11 38.044207 -121.994250 225 3218ft 120kts
25-Aug-18 14:12 38.016919 -122.020300 220 2292ft 123kts
25-Aug-18 14:13 37.988781 -122.044678 232 961ft 118kts
25-Aug-18 14:14 37.966220 -122.062800 299 809ft 64kts
25-Aug-18 14:15 37.982796 -122.055038 4 1230ft 57kts
25-Aug-18 14:16 37.985915 -122.037727 137 1311ft 103kts
25-Aug-18 14:17 37.973906 -122.044297 333 1072ft 55kts
25-Aug-18 14:18 37.988457 -122.053799 328 29ft 32kts
25-Aug-18 14:19 37.990326 -122.053868 34 25ft 0kts
25-Aug-18 14:20 37.989403 -122.054588 205 25ft 23kts
25-Aug-18 14:21 37.984501 -122.056591 204 25ft 0kts
25-Aug-18 14:22 37.984462 -122.056613 203 25ft 0kts
25-Aug-18 14:23 37.984462 -122.056613 203 25ft 0kts
25-Aug-18 14:24 37.984462 -122.056613 203 25ft 0kts
25-Aug-18 14:25 37.984462 -122.056613 203 25ft 0kts
25-Aug-18 14:26 37.984462 -122.056613 203 25ft 0kts
25-Aug-18 14:27 37.984462 -122.056613 203 25ft 0kts
25-Aug-18 14:28 37.984462 -122.056613 203 25ft 0kts
25-Aug-18 14:29 37.984462 -122.056613 203 25ft 0kts
25-Aug-18 14:30 37.984462 -122.056613 203 25ft 0kts
25-Aug-18 14:31 37.984462 -122.056613 203 25ft 0kts
25-Aug-18 14:32 37.984462 -122.056613 203 25ft 0kts

Navigation Log

Ident Type
Flight plan parsing failed, navigation log unavailable